Time;durP1;ratioP1;P1;durP2;ratioP2;P2;SDS_P1;SDS_P2;PMS_P1;PMS_P2;Temp;Humidity;BMP_temperature;BMP_pressure;BME280_temperature;BME280_humidity;BME280_pressure;Samples;Min_cycle;Max_cycle;Signal;HPM_P1;HPM_P2
2022/05/06 00:00:55;;;;;;;10.52;8.00;;;9.90;99.90;;;;;;5068361;28;20051;-58
2022/05/06 00:03:21;;;;;;;14.32;10.48;;;9.90;99.90;;;;;;5068011;28;20672;-59
2022/05/06 00:05:47;;;;;;;26.95;17.73;;;9.80;99.90;;;;;;5069573;28;20060;-58
2022/05/06 00:08:14;;;;;;;24.83;17.17;;;9.70;99.90;;;;;;5072111;28;20065;-59
2022/05/06 00:10:40;;;;;;;21.15;14.00;;;9.70;99.90;;;;;;5056015;28;20044;-61
2022/05/06 00:13:06;;;;;;;16.95;12.23;;;9.70;99.90;;;;;;5055273;28;20055;-59
2022/05/06 00:15:32;;;;;;;18.65;12.52;;;9.70;99.90;;;;;;5073300;28;20078;-59
2022/05/06 00:17:58;;;;;;;16.73;11.20;;;9.60;99.90;;;;;;5074037;28;20186;-57
2022/05/06 00:20:24;;;;;;;14.93;10.85;;;9.60;99.90;;;;;;5069665;28;20047;-59
2022/05/06 00:22:50;;;;;;;15.02;9.68;;;9.50;99.90;;;;;;5070083;28;20043;-58
2022/05/06 00:25:16;;;;;;;13.85;9.63;;;9.40;99.90;;;;;;5059811;28;20119;-59
2022/05/06 00:27:42;;;;;;;17.05;11.95;;;9.40;99.90;;;;;;5071518;28;20072;-59
2022/05/06 00:30:09;;;;;;;18.08;11.43;;;9.30;99.90;;;;;;5053861;28;20141;-59
2022/05/06 00:32:36;;;;;;;16.13;10.48;;;9.30;99.90;;;;;;5069439;28;20662;-58
2022/05/06 00:35:02;;;;;;;14.02;10.23;;;9.30;99.90;;;;;;5069865;28;20631;-59
2022/05/06 00:37:28;;;;;;;12.98;9.70;;;9.20;99.90;;;;;;5071990;28;20608;-59
2022/05/06 00:39:54;;;;;;;12.77;8.77;;;9.20;99.90;;;;;;5069907;28;20131;-58
2022/05/06 00:42:20;;;;;;;14.82;10.40;;;9.20;99.90;;;;;;5053932;28;20708;-59
2022/05/06 00:44:46;;;;;;;16.63;12.10;;;9.20;99.90;;;;;;5068845;28;21051;-58
2022/05/06 00:47:20;;;;;;;17.70;12.35;;;9.20;99.90;;;;;;5070508;28;20051;-58
2022/05/06 00:49:47;;;;;;;13.90;10.10;;;9.20;99.90;;;;;;5069618;28;20036;-58
2022/05/06 00:52:14;;;;;;;11.02;8.75;;;9.10;99.90;;;;;;5071411;28;20048;-59
2022/05/06 00:54:40;;;;;;;12.35;9.73;;;9.10;99.90;;;;;;5051135;28;20043;-58
2022/05/06 00:57:07;;;;;;;13.48;10.63;;;9.10;99.90;;;;;;5070452;28;20050;-57
2022/05/06 01:00:17;;;;;;;13.68;9.73;;;9.00;99.90;;;;;;5067216;28;20045;-59
2022/05/06 01:02:20;;;;;;;10.85;9.00;;;9.00;99.90;;;;;;5068873;28;20043;-58
2022/05/06 01:04:46;;;;;;;14.45;9.70;;;8.90;99.90;;;;;;5051552;28;20048;-59
2022/05/06 01:07:13;;;;;;;11.27;8.95;;;8.90;99.90;;;;;;5016955;28;20476;-58
2022/05/06 01:09:39;;;;;;;12.20;9.48;;;8.80;99.90;;;;;;5066289;28;20570;-58
2022/05/06 01:12:06;;;;;;;14.05;11.07;;;8.80;99.90;;;;;;5046048;28;20055;-58
2022/05/06 01:14:34;;;;;;;12.45;9.68;;;8.80;99.90;;;;;;5066323;28;20050;-58
2022/05/06 01:17:00;;;;;;;17.00;9.55;;;8.80;99.90;;;;;;5054624;28;20131;-58
2022/05/06 01:19:27;;;;;;;16.52;11.82;;;8.80;99.90;;;;;;5042448;28;20600;-57
2022/05/06 01:21:55;;;;;;;18.83;13.93;;;8.70;99.90;;;;;;5073497;28;20124;-58
2022/05/06 01:24:21;;;;;;;68.35;15.40;;;8.60;99.90;;;;;;5072141;28;20106;-59
2022/05/06 01:27:06;;;;;;;18.50;14.52;;;8.50;99.90;;;;;;5070815;28;20078;-59
2022/05/06 01:29:32;;;;;;;32.58;18.35;;;8.40;99.90;;;;;;5073747;28;20135;-58
2022/05/06 01:32:00;;;;;;;22.50;15.68;;;8.40;99.90;;;;;;5068246;28;20039;-59
2022/05/06 01:34:29;;;;;;;26.17;16.45;;;8.40;99.90;;;;;;5068023;28;20058;-58
2022/05/06 01:37:03;;;;;;;19.15;14.98;;;8.30;99.90;;;;;;5071104;28;20520;-57
2022/05/06 01:39:33;;;;;;;19.08;14.38;;;8.30;99.90;;;;;;5068055;28;20127;-58
2022/05/06 01:42:04;;;;;;;22.00;15.13;;;8.30;99.90;;;;;;5069266;28;20067;-58
2022/05/06 01:44:35;;;;;;;17.67;14.23;;;8.30;99.90;;;;;;5065929;28;20055;-59
2022/05/06 01:47:05;;;;;;;18.38;14.65;;;8.30;99.90;;;;;;5065712;28;20058;-58
2022/05/06 01:49:32;;;;;;;17.40;13.93;;;8.20;99.90;;;;;;5066163;28;20113;-58
2022/05/06 01:51:59;;;;;;;17.65;13.85;;;8.20;99.90;;;;;;5048481;28;20048;-58
2022/05/06 01:54:26;;;;;;;26.45;16.52;;;8.20;99.90;;;;;;5067130;28;20109;-58
2022/05/06 01:56:52;;;;;;;22.38;16.63;;;8.20;99.90;;;;;;5055093;28;20032;-58
2022/05/06 01:59:19;;;;;;;20.23;15.35;;;8.20;99.90;;;;;;5073399;28;20053;-58
2022/05/06 02:01:45;;;;;;;19.85;15.43;;;8.20;99.90;;;;;;5067853;28;20097;-57
2022/05/06 02:06:55;;;;;;;29.05;20.10;;;8.20;99.90;;;;;;5053035;28;20067;-58
2022/05/06 02:09:22;;;;;;;31.73;21.27;;;8.20;99.90;;;;;;5070166;28;20594;-58
2022/05/06 02:11:48;;;;;;;34.17;22.40;;;8.20;99.90;;;;;;5068646;28;20048;-57
2022/05/06 02:14:15;;;;;;;36.30;23.08;;;8.20;99.90;;;;;;5067997;28;20059;-58
2022/05/06 02:16:41;;;;;;;40.13;25.73;;;8.30;99.90;;;;;;5067822;28;20078;-58
2022/05/06 02:19:07;;;;;;;35.42;21.92;;;8.30;99.90;;;;;;5067368;28;20143;-57
2022/05/06 02:21:34;;;;;;;18.00;14.65;;;8.30;99.90;;;;;;5069639;28;20040;-57
2022/05/06 02:24:00;;;;;;;13.38;10.48;;;8.30;99.90;;;;;;5064215;28;20080;-58
2022/05/06 02:26:26;;;;;;;12.73;9.40;;;8.30;99.90;;;;;;5069604;28;20050;-57
2022/05/06 02:28:52;;;;;;;12.45;9.40;;;8.30;99.90;;;;;;5068852;28;20504;-57
2022/05/06 02:34:03;;;;;;;17.63;12.07;;;8.20;99.90;;;;;;5068605;28;20052;-61
2022/05/06 02:36:29;;;;;;;19.30;13.68;;;8.20;99.90;;;;;;5068285;28;20043;-58
2022/05/06 02:38:55;;;;;;;22.92;15.45;;;8.20;99.90;;;;;;5034766;28;20043;-58
2022/05/06 02:41:21;;;;;;;24.35;17.05;;;8.20;99.90;;;;;;5069632;28;20047;-57
2022/05/06 02:43:47;;;;;;;29.92;19.10;;;8.20;99.90;;;;;;5068271;28;20573;-59
2022/05/06 02:46:13;;;;;;;27.90;17.52;;;8.20;99.90;;;;;;5067745;28;20075;-55
2022/05/06 02:48:39;;;;;;;12.15;8.70;;;8.20;99.90;;;;;;5069634;28;20056;-57
2022/05/06 02:51:05;;;;;;;7.13;6.35;;;8.10;99.90;;;;;;5070317;28;20387;-56
2022/05/06 02:53:31;;;;;;;31.17;10.35;;;8.10;99.90;;;;;;5066915;28;20072;-57
2022/05/06 02:55:57;;;;;;;34.58;13.27;;;8.00;99.90;;;;;;5069564;28;20063;-56
2022/05/06 02:58:23;;;;;;;20.67;14.85;;;7.90;99.90;;;;;;5066140;28;20044;-57
2022/05/06 03:00:49;;;;;;;25.50;16.17;;;7.90;99.90;;;;;;5072418;28;20044;-58
2022/05/06 03:03:15;;;;;;;32.38;19.73;;;7.80;99.90;;;;;;5053294;28;20044;-58
2022/05/06 03:05:42;;;;;;;39.35;22.10;;;7.80;99.90;;;;;;5067171;28;20064;-57
2022/05/06 03:08:08;;;;;;;48.65;24.05;;;7.80;99.90;;;;;;5067284;28;20578;-58
2022/05/06 03:10:34;;;;;;;52.03;24.20;;;7.80;99.90;;;;;;5066599;28;20046;-57
2022/05/06 03:13:00;;;;;;;64.70;26.67;;;7.80;99.90;;;;;;5067799;28;20040;-57
2022/05/06 03:15:26;;;;;;;53.53;24.75;;;7.80;99.90;;;;;;5066554;28;20040;-57
2022/05/06 03:17:53;;;;;;;166.23;27.45;;;7.80;99.90;;;;;;5069840;28;20101;-56
2022/05/06 03:20:20;;;;;;;81.63;27.95;;;7.90;99.90;;;;;;5068994;28;20028;-58
2022/05/06 03:22:46;;;;;;;230.95;35.60;;;7.90;99.90;;;;;;5072689;28;20070;-57
2022/05/06 03:25:13;;;;;;;153.40;36.03;;;8.00;99.90;;;;;;5069946;28;20058;-58
2022/05/06 03:30:26;;;;;;;122.00;36.03;;;8.00;99.90;;;;;;5056018;28;20052;-58
2022/05/06 03:32:55;;;;;;;62.13;30.33;;;8.10;99.90;;;;;;5052692;28;20135;-56
2022/05/06 03:35:21;;;;;;;119.22;35.28;;;8.10;99.90;;;;;;5050957;28;20051;-58
2022/05/06 03:37:48;;;;;;;70.25;31.02;;;8.20;99.90;;;;;;5068013;28;20080;-56
2022/05/06 03:40:17;;;;;;;156.30;37.13;;;8.10;99.90;;;;;;5049381;28;20048;-57
2022/05/06 03:42:43;;;;;;;81.13;34.30;;;8.20;99.90;;;;;;5068266;28;20463;-58
2022/05/06 03:45:09;;;;;;;130.88;34.90;;;8.30;99.90;;;;;;5067222;28;20047;-58
2022/05/06 03:47:36;;;;;;;105.18;36.00;;;8.30;99.90;;;;;;5069992;28;20055;-58
2022/05/06 03:52:49;;;;;;;129.77;36.97;;;8.40;99.90;;;;;;5067236;28;20052;-58
2022/05/06 03:55:15;;;;;;;325.35;47.70;;;8.40;99.90;;;;;;5068014;28;20045;-58
2022/05/06 03:57:42;;;;;;;216.55;42.75;;;8.40;99.90;;;;;;5067122;28;20098;-57
2022/05/06 04:00:10;;;;;;;161.35;40.58;;;8.50;99.90;;;;;;5063798;28;20136;-58
2022/05/06 04:02:37;;;;;;;152.48;35.35;;;8.50;99.90;;;;;;5061860;28;21552;-58
2022/05/06 04:05:04;;;;;;;202.75;42.92;;;8.50;99.90;;;;;;5048267;28;20578;-59
2022/05/06 04:07:30;;;;;;;201.10;38.08;;;8.50;99.90;;;;;;5056882;28;20045;-58
2022/05/06 04:09:56;;;;;;;115.70;33.50;;;8.50;99.90;;;;;;5067061;28;20056;-57
2022/05/06 04:12:23;;;;;;;126.53;34.47;;;8.50;99.90;;;;;;5068859;28;20137;-57
2022/05/06 04:14:50;;;;;;;322.85;37.28;;;8.50;99.90;;;;;;5063879;28;20061;-58
2022/05/06 04:17:17;;;;;;;127.30;33.22;;;8.60;99.90;;;;;;5067086;28;20058;-58
2022/05/06 04:23:29;;;;;;;76.47;30.77;;;8.60;99.90;;;;;;5046350;28;20048;-58
2022/05/06 04:25:15;;;;;;;119.10;27.60;;;8.60;99.90;;;;;;5067384;28;20040;-58
2022/05/06 04:27:45;;;;;;;54.53;26.05;;;8.60;99.90;;;;;;5057250;28;20482;-59
2022/05/06 04:30:11;;;;;;;109.47;28.90;;;8.70;99.90;;;;;;5067738;28;20052;-58
2022/05/06 04:32:38;;;;;;;120.43;28.60;;;8.70;99.90;;;;;;5066186;28;20044;-57
2022/05/06 04:35:06;;;;;;;92.03;27.83;;;8.70;99.90;;;;;;5068007;28;20052;-59
2022/05/06 04:37:33;;;;;;;106.00;28.10;;;8.70;99.90;;;;;;5052601;28;20152;-57
2022/05/06 04:40:00;;;;;;;48.42;25.15;;;8.70;99.90;;;;;;5066314;28;20052;-57
2022/05/06 04:42:26;;;;;;;43.30;24.67;;;8.80;99.90;;;;;;5066096;28;20070;-57
2022/05/06 04:44:53;;;;;;;58.88;23.17;;;8.80;99.90;;;;;;5057563;28;20059;-57
2022/05/06 04:47:19;;;;;;;129.38;27.58;;;8.90;99.90;;;;;;5066733;28;20637;-58
2022/05/06 04:49:45;;;;;;;55.83;24.98;;;8.90;99.90;;;;;;5057009;28;20072;-59
2022/05/06 04:52:10;;;;;;;138.55;28.05;;;8.90;99.90;;;;;;5067884;28;20159;-58
2022/05/06 04:54:37;;;;;;;92.95;28.77;;;9.00;99.90;;;;;;5062600;28;20048;-57
2022/05/06 04:57:04;;;;;;;79.95;28.85;;;9.00;99.90;;;;;;5070916;28;20703;-59
2022/05/06 04:59:30;;;;;;;47.80;27.13;;;9.00;99.90;;;;;;5069687;28;20054;-57
2022/05/06 05:01:56;;;;;;;51.20;27.48;;;9.00;99.90;;;;;;5072040;28;20502;-58
2022/05/06 05:04:27;;;;;;;56.25;28.13;;;9.10;99.90;;;;;;5058682;28;20097;-59
2022/05/06 05:06:56;;;;;;;77.15;30.50;;;9.10;99.90;;;;;;5073387;28;20070;-58
2022/05/06 05:09:23;;;;;;;59.03;30.25;;;9.10;99.90;;;;;;5071679;28;20402;-58
2022/05/06 05:11:49;;;;;;;59.67;30.27;;;9.20;99.90;;;;;;5051469;28;20142;-58
2022/05/06 05:14:15;;;;;;;70.35;29.73;;;9.20;99.90;;;;;;5049847;28;20044;-58
2022/05/06 05:16:41;;;;;;;66.78;28.35;;;9.20;99.90;;;;;;5059905;28;20041;-59
2022/05/06 05:19:07;;;;;;;53.67;29.02;;;9.30;99.90;;;;;;5068747;28;20037;-57
2022/05/06 05:21:33;;;;;;;64.35;30.27;;;9.30;99.90;;;;;;5054282;28;20527;-58
2022/05/06 05:23:59;;;;;;;72.28;31.42;;;9.30;99.90;;;;;;5052241;28;20044;-58
2022/05/06 05:26:26;;;;;;;95.90;33.53;;;9.30;99.90;;;;;;5070327;28;20044;-58
2022/05/06 05:28:52;;;;;;;62.55;32.33;;;9.40;99.90;;;;;;5054585;28;20833;-57
2022/05/06 05:31:18;;;;;;;62.88;33.35;;;9.40;99.90;;;;;;5071903;28;20138;-59
2022/05/06 05:33:44;;;;;;;154.68;38.03;;;9.40;99.90;;;;;;5054265;28;20048;-59
2022/05/06 05:36:10;;;;;;;150.07;36.55;;;9.50;99.90;;;;;;5067014;28;20732;-59
2022/05/06 05:38:36;;;;;;;66.95;33.33;;;9.50;99.90;;;;;;5072742;28;20044;-59
2022/05/06 05:41:02;;;;;;;65.80;34.20;;;9.50;99.90;;;;;;5058000;28;20055;-58
2022/05/06 05:48:57;;;;;;;72.55;31.27;;;9.70;99.90;;;;;;5067286;28;20056;-58
2022/05/06 05:51:24;;;;;;;84.65;33.20;;;9.70;99.90;;;;;;5068645;28;20059;-59
2022/05/06 05:53:50;;;;;;;98.50;36.35;;;9.70;99.90;;;;;;5067961;28;20124;-58
2022/05/06 05:56:16;;;;;;;65.47;30.77;;;9.80;99.90;;;;;;5066239;28;20048;-58
2022/05/06 05:58:42;;;;;;;114.18;35.10;;;9.80;99.90;;;;;;5071009;28;20478;-59
2022/05/06 06:01:09;;;;;;;77.88;33.33;;;9.80;99.90;;;;;;5066588;28;20044;-58
2022/05/06 06:03:34;;;;;;;92.88;33.75;;;9.80;99.90;;;;;;5048459;28;20054;-59
2022/05/06 06:06:00;;;;;;;98.78;37.45;;;9.90;99.90;;;;;;5063884;28;20058;-59
2022/05/06 06:08:27;;;;;;;90.43;36.75;;;9.90;99.90;;;;;;5067492;28;20054;-59
2022/05/06 06:10:53;;;;;;;94.50;36.22;;;9.90;99.90;;;;;;5065140;28;20052;-59
2022/05/06 06:13:19;;;;;;;93.45;36.90;;;9.90;99.90;;;;;;5041900;28;20411;-58
2022/05/06 06:15:45;;;;;;;94.15;37.30;;;9.90;99.90;;;;;;5063746;28;20051;-59
2022/05/06 06:18:11;;;;;;;79.28;36.30;;;10.00;99.90;;;;;;5062617;28;20040;-59
2022/05/06 06:20:37;;;;;;;90.57;37.95;;;10.00;99.90;;;;;;5068403;28;20072;-58
2022/05/06 06:23:04;;;;;;;131.60;41.95;;;10.00;99.90;;;;;;5065621;28;20053;-59
2022/05/06 06:25:30;;;;;;;71.57;35.28;;;10.20;99.90;;;;;;5073736;28;20047;-58
2022/05/06 06:27:56;;;;;;;106.13;40.72;;;10.30;99.90;;;;;;5055992;28;20131;-57
2022/05/06 06:30:23;;;;;;;83.50;37.47;;;10.50;99.90;;;;;;5068299;28;20040;-59
2022/05/06 06:32:52;;;;;;;63.92;32.85;;;10.50;99.90;;;;;;5069741;28;20055;-59
2022/05/06 06:35:18;;;;;;;62.97;34.00;;;10.70;99.90;;;;;;5066648;28;20270;-59
2022/05/06 06:37:45;;;;;;;59.55;32.92;;;10.70;99.90;;;;;;5060661;28;20075;-58
2022/05/06 06:40:11;;;;;;;69.70;33.85;;;10.80;99.90;;;;;;5067836;28;20067;-59
2022/05/06 06:42:37;;;;;;;63.72;32.88;;;10.90;99.90;;;;;;5051799;28;20043;-58
2022/05/06 06:45:04;;;;;;;66.78;33.65;;;10.90;99.90;;;;;;5026630;28;20052;-58
2022/05/06 06:47:30;;;;;;;74.80;33.45;;;11.00;99.90;;;;;;5055932;28;20051;-59
2022/05/06 06:49:58;;;;;;;68.07;33.92;;;11.00;99.90;;;;;;5071845;28;20100;-59
2022/05/06 06:52:24;;;;;;;52.00;29.20;;;11.10;99.90;;;;;;5068351;28;20378;-59
2022/05/06 06:54:50;;;;;;;52.85;29.55;;;11.20;99.90;;;;;;5046724;28;20179;-59
2022/05/06 06:57:16;;;;;;;47.78;27.48;;;11.20;99.90;;;;;;5061221;28;20247;-58
2022/05/06 06:59:42;;;;;;;53.22;27.90;;;11.30;99.90;;;;;;5064044;28;20091;-59
2022/05/06 07:02:08;;;;;;;47.17;27.38;;;11.40;99.90;;;;;;5064490;28;20398;-58
2022/05/06 07:04:34;;;;;;;46.42;26.88;;;11.40;99.90;;;;;;5063666;28;20873;-59
2022/05/06 07:12:30;;;;;;;35.22;21.95;;;11.60;99.90;;;;;;5059083;28;20117;-59
2022/05/06 07:14:56;;;;;;;37.67;22.33;;;11.60;99.90;;;;;;5060117;28;20082;-58
2022/05/06 07:17:22;;;;;;;36.58;22.45;;;11.70;99.90;;;;;;5051856;28;20048;-59
2022/05/06 07:19:48;;;;;;;39.30;22.27;;;11.80;99.90;;;;;;5056841;28;20048;-58
2022/05/06 07:22:15;;;;;;;29.92;19.08;;;11.80;99.90;;;;;;5040586;28;20075;-59
2022/05/06 07:24:41;;;;;;;28.48;19.38;;;11.90;99.90;;;;;;5058178;28;21960;-59
2022/05/06 07:27:07;;;;;;;30.27;19.73;;;11.90;99.90;;;;;;5060392;28;20048;-58
2022/05/06 07:29:34;;;;;;;30.17;19.45;;;11.90;99.90;;;;;;5059706;28;20052;-58
2022/05/06 07:32:00;;;;;;;28.58;18.70;;;12.00;99.90;;;;;;5041132;28;20615;-59
2022/05/06 07:34:26;;;;;;;27.75;17.63;;;12.00;99.90;;;;;;5055521;28;20047;-60
2022/05/06 07:36:52;;;;;;;29.48;17.73;;;12.00;99.90;;;;;;5044169;28;20052;-59
2022/05/06 07:39:18;;;;;;;25.23;17.05;;;12.10;99.90;;;;;;5064822;28;20044;-58
2022/05/06 07:41:46;;;;;;;26.88;17.45;;;12.10;99.90;;;;;;5063508;28;20819;-59
2022/05/06 07:44:12;;;;;;;24.25;15.80;;;12.20;99.90;;;;;;5042753;28;20052;-59
2022/05/06 07:46:38;;;;;;;21.13;14.52;;;12.20;99.90;;;;;;5053784;28;20904;-57
2022/05/06 07:49:06;;;;;;;26.05;15.32;;;12.30;99.90;;;;;;5063103;28;20087;-58
2022/05/06 07:51:32;;;;;;;23.27;14.95;;;12.30;99.90;;;;;;5045886;28;20146;-58
2022/05/06 07:53:58;;;;;;;19.00;13.18;;;12.40;99.90;;;;;;5046595;28;20052;-59
2022/05/06 07:56:26;;;;;;;16.85;12.32;;;12.50;99.90;;;;;;5034550;28;20044;-58
2022/05/06 07:58:53;;;;;;;15.23;11.88;;;12.60;99.90;;;;;;5065354;28;20691;-58
2022/05/06 08:04:32;;;;;;;16.88;12.18;;;12.70;99.90;;;;;;5064018;28;20044;-59
2022/05/06 08:06:52;;;;;;;15.10;11.77;;;12.90;99.90;;;;;;5058571;28;20052;-59
2022/05/06 08:09:20;;;;;;;14.00;10.68;;;13.00;99.90;;;;;;5059520;28;20040;-58
2022/05/06 08:11:47;;;;;;;13.77;10.45;;;13.10;99.90;;;;;;5064041;28;20458;-59
2022/05/06 08:14:15;;;;;;;12.93;10.13;;;13.20;99.90;;;;;;5062824;28;20055;-58
2022/05/06 08:16:42;;;;;;;12.23;10.10;;;13.30;99.90;;;;;;5061357;28;20102;-59
2022/05/06 08:19:09;;;;;;;12.50;10.00;;;13.40;99.90;;;;;;5060758;28;20076;-57
2022/05/06 08:21:36;;;;;;;12.27;9.25;;;13.50;99.90;;;;;;5054292;28;20044;-58
2022/05/06 08:24:02;;;;;;;12.38;9.13;;;13.60;99.90;;;;;;5061527;28;20063;-57
2022/05/06 08:26:28;;;;;;;16.65;11.43;;;13.80;99.90;;;;;;5068914;28;20181;-58
2022/05/06 08:28:55;;;;;;;12.48;10.57;;;13.90;99.90;;;;;;5055571;28;20510;-59
2022/05/06 08:31:22;;;;;;;12.80;10.65;;;14.00;99.90;;;;;;5065880;28;20135;-59
2022/05/06 08:33:48;;;;;;;13.85;10.25;;;14.10;99.90;;;;;;5054140;28;20148;-59
2022/05/06 08:36:14;;;;;;;13.20;9.65;;;14.20;99.90;;;;;;5060507;28;20044;-57
2022/05/06 08:38:40;;;;;;;11.57;8.80;;;14.20;99.90;;;;;;5051416;28;20490;-57
2022/05/06 08:41:09;;;;;;;10.65;8.68;;;14.30;99.90;;;;;;5063145;28;20619;-58
2022/05/06 08:43:36;;;;;;;9.20;8.10;;;14.40;99.90;;;;;;5064453;28;20052;-59
2022/05/06 08:51:40;;;;;;;9.68;8.60;;;14.80;99.90;;;;;;5056581;28;21174;-58
2022/05/06 08:54:07;;;;;;;11.98;9.30;;;14.90;99.90;;;;;;5047401;28;20498;-59
2022/05/06 08:56:33;;;;;;;10.35;7.60;;;15.20;99.90;;;;;;5054374;28;20048;-58
2022/05/06 08:58:59;;;;;;;8.60;7.70;;;15.40;99.90;;;;;;5064386;28;20044;-59
2022/05/06 09:01:26;;;;;;;6.70;5.97;;;15.60;99.90;;;;;;5070570;28;20133;-59
2022/05/06 09:03:53;;;;;;;7.57;6.60;;;15.80;99.90;;;;;;5071300;28;20182;-59
2022/05/06 09:06:26;;;;;;;7.78;6.65;;;15.90;99.90;;;;;;5060308;28;20118;-59
2022/05/06 09:08:55;;;;;;;7.68;6.60;;;15.90;99.90;;;;;;5032770;28;20113;-58
2022/05/06 09:14:12;;;;;;;9.85;6.50;;;16.10;99.90;;;;;;5066604;28;20056;-59
2022/05/06 09:16:41;;;;;;;7.80;6.60;;;16.10;99.90;;;;;;5070425;28;20135;-58
2022/05/06 09:19:21;;;;;;;9.07;6.43;;;16.10;99.90;;;;;;5075098;28;20039;-59
2022/05/06 09:22:19;;;;;;;6.90;6.20;;;16.20;99.90;;;;;;5072101;28;20036;-58
2022/05/06 09:24:47;;;;;;;8.20;6.47;;;16.40;99.90;;;;;;5026563;28;20040;-59
2022/05/06 09:27:15;;;;;;;6.57;5.65;;;16.50;99.90;;;;;;5068494;28;20044;-59
2022/05/06 09:29:49;;;;;;;7.75;6.90;;;16.60;99.90;;;;;;5064314;28;20452;-59
2022/05/06 09:32:25;;;;;;;7.20;6.50;;;16.80;99.90;;;;;;5072104;28;20445;-61
2022/05/06 09:35:09;;;;;;;7.35;6.55;;;17.00;99.90;;;;;;5068428;28;20040;-60
2022/05/06 09:37:37;;;;;;;7.05;6.05;;;17.20;99.90;;;;;;5066208;28;20079;-59
2022/05/06 09:40:14;;;;;;;8.10;6.28;;;17.40;99.90;;;;;;5064906;28;21550;-59
2022/05/06 09:42:42;;;;;;;7.53;6.20;;;17.60;99.90;;;;;;5066447;28;20649;-59
2022/05/06 09:45:10;;;;;;;5.93;5.32;;;17.70;99.90;;;;;;5065642;28;20056;-59
2022/05/06 09:47:38;;;;;;;7.38;5.68;;;17.80;99.90;;;;;;5070355;28;20123;-59
2022/05/06 09:50:07;;;;;;;6.75;5.50;;;17.90;99.90;;;;;;5068560;28;20091;-59
2022/05/06 09:52:33;;;;;;;6.97;5.90;;;18.00;99.90;;;;;;5073649;28;20055;-59
2022/05/06 09:55:00;;;;;;;7.68;6.88;;;18.00;99.90;;;;;;5066579;28;20053;-59
2022/05/06 09:57:26;;;;;;;10.88;6.40;;;18.00;99.90;;;;;;5065485;28;20423;-59
2022/05/06 09:59:52;;;;;;;8.15;6.40;;;18.10;99.90;;;;;;5068681;28;20056;-59
2022/05/06 10:02:18;;;;;;;6.22;5.63;;;18.30;99.90;;;;;;5052571;28;20105;-59
2022/05/06 10:04:47;;;;;;;6.80;6.10;;;18.50;99.90;;;;;;5070257;28;20480;-59
2022/05/06 10:07:15;;;;;;;6.95;6.13;;;18.60;99.90;;;;;;5045797;28;20064;-59
2022/05/06 10:10:01;;;;;;;7.57;6.78;;;18.80;99.90;;;;;;5044196;28;20052;-59
2022/05/06 10:12:35;;;;;;;7.93;7.13;;;18.90;99.90;;;;;;5027642;28;20044;-59
2022/05/06 10:15:03;;;;;;;7.65;6.88;;;19.00;99.90;;;;;;5044873;28;20505;-60
2022/05/06 10:17:56;;;;;;;7.03;6.32;;;19.00;99.90;;;;;;5031926;28;20049;-60
2022/05/06 10:20:37;;;;;;;6.78;6.10;;;19.00;99.70;;;;;;5040709;28;20045;-59
2022/05/06 10:23:07;;;;;;;7.03;5.63;;;19.10;99.40;;;;;;5041417;28;20853;-59
2022/05/06 10:25:43;;;;;;;9.98;5.80;;;19.30;99.60;;;;;;5045913;28;20054;-59
2022/05/06 10:34:07;;;;;;;5.43;4.93;;;19.70;98.50;;;;;;5043466;28;20048;-59
2022/05/06 10:36:51;;;;;;;6.25;5.65;;;19.90;98.10;;;;;;5041786;28;20040;-59
2022/05/06 10:39:33;;;;;;;5.50;5.00;;;19.90;96.70;;;;;;5044380;28;20136;-59
2022/05/06 10:42:02;;;;;;;5.70;4.60;;;19.90;95.80;;;;;;5040578;28;20156;-59
2022/05/06 10:44:35;;;;;;;9.20;4.38;;;20.00;96.20;;;;;;5046433;28;20053;-59
2022/05/06 10:47:19;;;;;;;5.63;4.50;;;20.10;96.20;;;;;;5042748;28;20067;-59
2022/05/06 10:49:52;;;;;;;5.78;4.95;;;20.30;95.20;;;;;;5044557;28;20554;-59
2022/05/06 10:52:23;;;;;;;5.85;4.45;;;20.40;93.60;;;;;;5041496;28;20498;-59
2022/05/06 10:54:50;;;;;;;5.72;4.50;;;20.40;93.50;;;;;;5045676;28;20102;-60
2022/05/06 10:57:18;;;;;;;4.63;4.22;;;20.60;93.10;;;;;;5026258;28;20049;-59
2022/05/06 11:00:04;;;;;;;5.38;3.50;;;20.70;92.70;;;;;;5039534;28;20122;-59
2022/05/06 11:02:32;;;;;;;4.15;3.20;;;21.00;93.00;;;;;;5026772;28;20045;-58
2022/05/06 11:05:02;;;;;;;4.20;3.30;;;21.20;91.60;;;;;;5040014;28;20045;-59
2022/05/06 11:07:30;;;;;;;6.03;3.20;;;21.40;91.30;;;;;;5033407;28;20189;-59
2022/05/06 11:09:56;;;;;;;4.20;3.78;;;21.60;90.40;;;;;;5038198;28;20685;-59
2022/05/06 11:12:29;;;;;;;4.00;3.20;;;21.70;89.00;;;;;;5042540;28;20044;-62
2022/05/06 11:14:59;;;;;;;4.55;3.70;;;21.80;85.60;;;;;;5041037;28;20084;-61
2022/05/06 11:17:25;;;;;;;4.38;3.40;;;21.80;83.90;;;;;;5045298;28;20036;-61
2022/05/06 11:19:51;;;;;;;4.63;3.42;;;21.90;83.10;;;;;;5014590;28;20052;-60
2022/05/06 11:22:17;;;;;;;3.58;3.28;;;22.00;83.10;;;;;;5047174;28;20125;-61
2022/05/06 11:24:44;;;;;;;3.33;3.03;;;22.10;83.30;;;;;;5033159;28;20053;-61
2022/05/06 11:27:18;;;;;;;5.82;3.22;;;22.20;81.20;;;;;;5050561;28;20091;-61
2022/05/06 11:29:49;;;;;;;5.75;3.08;;;22.30;81.80;;;;;;5044854;28;20109;-61
2022/05/06 11:32:16;;;;;;;3.95;3.33;;;22.50;80.70;;;;;;5050419;28;20054;-62
2022/05/06 11:34:54;;;;;;;6.10;3.40;;;22.70;79.80;;;;;;5032685;28;20582;-61
2022/05/06 11:37:25;;;;;;;2.45;2.10;;;22.80;79.30;;;;;;5048401;28;20044;-61
2022/05/06 11:40:12;;;;;;;3.67;2.90;;;23.00;78.60;;;;;;5047310;28;20514;-61
2022/05/06 11:42:38;;;;;;;5.07;2.83;;;23.20;78.20;;;;;;5046885;28;20060;-61
2022/05/06 11:47:51;;;;;;;4.43;2.40;;;23.60;75.90;;;;;;5050073;28;20048;-61
2022/05/06 11:50:17;;;;;;;3.97;2.75;;;23.60;72.30;;;;;;5050194;28;20534;-60
2022/05/06 11:52:47;;;;;;;4.28;2.08;;;23.60;72.20;;;;;;5048379;28;20041;-62
2022/05/06 11:55:15;;;;;;;2.50;2.00;;;23.70;71.10;;;;;;5046136;28;20368;-62
2022/05/06 11:57:42;;;;;;;2.63;2.05;;;23.80;70.30;;;;;;5045017;28;20048;-60
2022/05/06 12:00:09;;;;;;;5.07;2.65;;;24.10;72.60;;;;;;5047492;28;20051;-61
2022/05/06 12:02:35;;;;;;;5.30;2.83;;;24.30;72.10;;;;;;5045312;28;20083;-62
2022/05/06 12:05:01;;;;;;;3.05;2.72;;;24.60;72.10;;;;;;5047999;28;20151;-61
2022/05/06 12:07:45;;;;;;;3.55;2.40;;;24.80;70.80;;;;;;5068727;28;20292;-62
2022/05/06 12:10:33;;;;;;;3.22;2.50;;;25.00;69.70;;;;;;5069097;28;20347;-63
2022/05/06 12:13:00;;;;;;;3.00;2.40;;;25.00;68.10;;;;;;5067525;28;20515;-62
2022/05/06 12:15:30;;;;;;;2.78;1.95;;;25.20;68.60;;;;;;5069503;28;20052;-62
2022/05/06 12:18:07;;;;;;;3.95;2.38;;;25.10;66.90;;;;;;5068533;28;20045;-60
2022/05/06 12:20:35;;;;;;;3.25;2.47;;;25.00;64.80;;;;;;5070617;28;20056;-62
2022/05/06 12:23:02;;;;;;;2.97;2.30;;;24.70;65.70;;;;;;5066097;28;20072;-62
2022/05/06 12:25:28;;;;;;;4.07;2.28;;;24.40;66.50;;;;;;5069795;28;20064;-62
2022/05/06 12:28:13;;;;;;;3.13;2.78;;;24.10;66.20;;;;;;5048013;28;20138;-61
2022/05/06 12:30:39;;;;;;;4.75;3.10;;;24.00;66.10;;;;;;5067646;28;20126;-60
2022/05/06 12:33:15;;;;;;;4.38;2.70;;;24.10;66.90;;;;;;5055330;28;20059;-62
2022/05/06 12:36:01;;;;;;;3.45;2.80;;;24.30;66.40;;;;;;5069362;28;20413;-62
2022/05/06 12:38:36;;;;;;;5.47;2.60;;;24.40;65.30;;;;;;5068382;28;20556;-61
2022/05/06 12:41:16;;;;;;;3.47;2.95;;;24.80;67.90;;;;;;5066030;28;20048;-61
2022/05/06 12:43:42;;;;;;;3.20;2.78;;;25.10;65.60;;;;;;5069778;28;20044;-61
2022/05/06 12:46:08;;;;;;;5.20;2.90;;;25.20;65.20;;;;;;5070112;28;20064;-62
2022/05/06 12:51:19;;;;;;;3.97;2.80;;;25.40;65.10;;;;;;5054315;28;20464;-62
2022/05/06 12:53:45;;;;;;;5.25;3.38;;;25.60;63.90;;;;;;5069948;28;20101;-61
2022/05/06 12:56:18;;;;;;;3.92;2.78;;;25.70;64.30;;;;;;5067138;28;20044;-62
2022/05/06 12:58:45;;;;;;;4.90;2.75;;;25.80;63.50;;;;;;5068733;28;20058;-62
2022/05/06 13:01:11;;;;;;;4.78;2.75;;;25.90;63.70;;;;;;5050872;28;20090;-60
2022/05/06 13:03:37;;;;;;;3.28;2.80;;;26.00;62.30;;;;;;5061988;28;20059;-60
2022/05/06 13:06:03;;;;;;;4.38;3.15;;;25.90;61.80;;;;;;5064033;28;20055;-61
2022/05/06 13:08:28;;;;;;;5.70;3.30;;;25.70;61.30;;;;;;5051712;28;20062;-61
2022/05/06 13:10:55;;;;;;;4.20;3.22;;;25.50;60.10;;;;;;5062442;28;20048;-62
2022/05/06 13:13:21;;;;;;;5.05;3.33;;;25.30;60.30;;;;;;5070139;28;20043;-59
2022/05/06 13:15:47;;;;;;;3.63;2.80;;;25.10;60.50;;;;;;5072499;28;20044;-62
2022/05/06 13:18:13;;;;;;;4.63;3.00;;;25.20;61.50;;;;;;5061441;28;20080;-63
2022/05/06 13:20:39;;;;;;;3.72;2.67;;;25.40;61.00;;;;;;5070563;28;20107;-61
2022/05/06 13:23:05;;;;;;;6.10;2.85;;;25.40;61.10;;;;;;5068551;28;20070;-63
2022/05/06 13:25:31;;;;;;;5.57;3.20;;;25.30;60.30;;;;;;5066555;28;20115;-61
2022/05/06 13:27:57;;;;;;;5.82;2.80;;;25.10;60.10;;;;;;5070033;28;20087;-63
2022/05/06 13:30:24;;;;;;;6.88;4.00;;;25.00;60.00;;;;;;5069467;28;20171;-62